sensor_id;sensor_type;location;lat;lon;timestamp;P1;durP1;ratioP1;P2;durP2;ratioP2
70981;SDS011;58640;51.320;9.456;2022-09-30T00:02:18;7.20;;;3.72;;
70981;SDS011;58640;51.320;9.456;2022-09-30T00:04:44;5.65;;;3.92;;
70981;SDS011;58640;51.320;9.456;2022-09-30T00:07:09;5.22;;;3.88;;
70981;SDS011;58640;51.320;9.456;2022-09-30T00:09:34;5.32;;;3.80;;
70981;SDS011;58640;51.320;9.456;2022-09-30T00:12:00;8.43;;;4.93;;
70981;SDS011;58640;51.320;9.456;2022-09-30T00:14:26;5.47;;;3.67;;
70981;SDS011;58640;51.320;9.456;2022-09-30T00:16:51;5.93;;;3.70;;
70981;SDS011;58640;51.320;9.456;2022-09-30T00:19:16;6.00;;;3.60;;
70981;SDS011;58640;51.320;9.456;2022-09-30T00:21:42;5.28;;;3.83;;
70981;SDS011;58640;51.320;9.456;2022-09-30T00:24:08;5.25;;;3.40;;
70981;SDS011;58640;51.320;9.456;2022-09-30T00:26:33;5.45;;;3.80;;
70981;SDS011;58640;51.320;9.456;2022-09-30T00:29:00;4.32;;;3.67;;
70981;SDS011;58640;51.320;9.456;2022-09-30T00:31:30;5.68;;;3.80;;
70981;SDS011;58640;51.320;9.456;2022-09-30T00:33:57;4.63;;;3.53;;
70981;SDS011;58640;51.320;9.456;2022-09-30T00:39:08;5.05;;;3.45;;
70981;SDS011;58640;51.320;9.456;2022-09-30T00:41:35;5.43;;;3.47;;
70981;SDS011;58640;51.320;9.456;2022-09-30T00:44:01;6.30;;;3.17;;
70981;SDS011;58640;51.320;9.456;2022-09-30T00:46:31;5.93;;;3.65;;
70981;SDS011;58640;51.320;9.456;2022-09-30T00:49:04;5.80;;;3.25;;
70981;SDS011;58640;51.320;9.456;2022-09-30T00:51:36;6.40;;;3.72;;
70981;SDS011;58640;51.320;9.456;2022-09-30T00:54:06;8.55;;;3.92;;
70981;SDS011;58640;51.320;9.456;2022-09-30T00:56:43;4.28;;;3.30;;
70981;SDS011;58640;51.320;9.456;2022-09-30T00:59:17;6.03;;;3.53;;
70981;SDS011;58640;51.320;9.456;2022-09-30T01:01:46;7.55;;;4.47;;
70981;SDS011;58640;51.320;9.456;2022-09-30T01:04:20;10.15;;;4.38;;
70981;SDS011;58640;51.320;9.456;2022-09-30T01:06:47;4.47;;;3.67;;
70981;SDS011;58640;51.320;9.456;2022-09-30T01:09:14;8.82;;;3.92;;
70981;SDS011;58640;51.320;9.456;2022-09-30T01:11:39;5.53;;;3.78;;
70981;SDS011;58640;51.320;9.456;2022-09-30T01:14:07;4.43;;;3.60;;
70981;SDS011;58640;51.320;9.456;2022-09-30T01:16:59;4.05;;;3.63;;
70981;SDS011;58640;51.320;9.456;2022-09-30T01:41:51;8.63;;;6.32;;
70981;SDS011;58640;51.320;9.456;2022-09-30T01:47:08;22.73;;;8.13;;
70981;SDS011;58640;51.320;9.456;2022-09-30T01:49:44;86.70;;;9.90;;
70981;SDS011;58640;51.320;9.456;2022-09-30T01:52:15;64.18;;;8.60;;
70981;SDS011;58640;51.320;9.456;2022-09-30T01:57:26;45.55;;;9.35;;
70981;SDS011;58640;51.320;9.456;2022-09-30T01:59:57;15.95;;;7.70;;
70981;SDS011;58640;51.320;9.456;2022-09-30T02:02:29;33.53;;;9.32;;
70981;SDS011;58640;51.320;9.456;2022-09-30T02:05:40;23.38;;;8.73;;
70981;SDS011;58640;51.320;9.456;2022-09-30T02:07:59;15.55;;;8.43;;
70981;SDS011;58640;51.320;9.456;2022-09-30T02:10:34;32.00;;;8.90;;
70981;SDS011;58640;51.320;9.456;2022-09-30T02:13:14;63.38;;;9.52;;
70981;SDS011;58640;51.320;9.456;2022-09-30T02:15:45;17.23;;;8.07;;
70981;SDS011;58640;51.320;9.456;2022-09-30T02:20:52;13.40;;;9.45;;
70981;SDS011;58640;51.320;9.456;2022-09-30T02:23:28;30.17;;;8.35;;
70981;SDS011;58640;51.320;9.456;2022-09-30T02:25:58;16.73;;;9.18;;
70981;SDS011;58640;51.320;9.456;2022-09-30T02:28:31;12.43;;;8.73;;
70981;SDS011;58640;51.320;9.456;2022-09-30T02:30:59;15.48;;;9.05;;
70981;SDS011;58640;51.320;9.456;2022-09-30T02:35:58;27.02;;;8.38;;
70981;SDS011;58640;51.320;9.456;2022-09-30T02:38:31;14.88;;;9.75;;
70981;SDS011;58640;51.320;9.456;2022-09-30T02:41:03;37.03;;;9.95;;
70981;SDS011;58640;51.320;9.456;2022-09-30T02:43:34;17.65;;;9.93;;
70981;SDS011;58640;51.320;9.456;2022-09-30T02:51:31;10.25;;;8.05;;
70981;SDS011;58640;51.320;9.456;2022-09-30T02:54:19;11.32;;;8.00;;
70981;SDS011;58640;51.320;9.456;2022-09-30T02:56:59;16.02;;;8.73;;
70981;SDS011;58640;51.320;9.456;2022-09-30T02:59:43;18.58;;;8.90;;
70981;SDS011;58640;51.320;9.456;2022-09-30T03:02:11;21.92;;;8.40;;
70981;SDS011;58640;51.320;9.456;2022-09-30T03:04:37;12.13;;;8.35;;
70981;SDS011;58640;51.320;9.456;2022-09-30T03:07:05;10.80;;;7.85;;
70981;SDS011;58640;51.320;9.456;2022-09-30T03:09:33;19.80;;;8.05;;
70981;SDS011;58640;51.320;9.456;2022-09-30T03:12:01;38.10;;;9.50;;
70981;SDS011;58640;51.320;9.456;2022-09-30T03:17:28;26.88;;;7.35;;
70981;SDS011;58640;51.320;9.456;2022-09-30T03:26:07;10.82;;;6.95;;
70981;SDS011;58640;51.320;9.456;2022-09-30T03:29:18;11.50;;;7.70;;
70981;SDS011;58640;51.320;9.456;2022-09-30T03:40:14;9.98;;;7.65;;
70981;SDS011;58640;51.320;9.456;2022-09-30T03:42:43;11.02;;;7.47;;
70981;SDS011;58640;51.320;9.456;2022-09-30T03:47:41;16.00;;;8.18;;
70981;SDS011;58640;51.320;9.456;2022-09-30T03:50:11;14.32;;;8.60;;
70981;SDS011;58640;51.320;9.456;2022-09-30T03:52:41;34.38;;;8.35;;
70981;SDS011;58640;51.320;9.456;2022-09-30T03:55:07;15.68;;;7.35;;
70981;SDS011;58640;51.320;9.456;2022-09-30T03:57:35;11.48;;;7.40;;
70981;SDS011;58640;51.320;9.456;2022-09-30T04:00:01;8.35;;;6.82;;
70981;SDS011;58640;51.320;9.456;2022-09-30T04:02:28;12.25;;;8.30;;
70981;SDS011;58640;51.320;9.456;2022-09-30T04:04:53;16.15;;;8.48;;
70981;SDS011;58640;51.320;9.456;2022-09-30T04:07:19;13.02;;;7.85;;
70981;SDS011;58640;51.320;9.456;2022-09-30T04:09:44;10.95;;;7.50;;
70981;SDS011;58640;51.320;9.456;2022-09-30T04:12:10;17.73;;;7.53;;
70981;SDS011;58640;51.320;9.456;2022-09-30T04:14:35;56.97;;;10.40;;
70981;SDS011;58640;51.320;9.456;2022-09-30T04:17:04;13.15;;;6.30;;
70981;SDS011;58640;51.320;9.456;2022-09-30T04:19:30;8.23;;;6.72;;
70981;SDS011;58640;51.320;9.456;2022-09-30T04:21:56;16.92;;;7.38;;
70981;SDS011;58640;51.320;9.456;2022-09-30T04:24:21;18.80;;;7.03;;
70981;SDS011;58640;51.320;9.456;2022-09-30T04:26:48;40.03;;;7.28;;
70981;SDS011;58640;51.320;9.456;2022-09-30T04:29:13;11.88;;;6.88;;
70981;SDS011;58640;51.320;9.456;2022-09-30T04:31:39;26.60;;;7.65;;
70981;SDS011;58640;51.320;9.456;2022-09-30T04:34:05;13.73;;;7.32;;
70981;SDS011;58640;51.320;9.456;2022-09-30T04:36:30;19.10;;;7.35;;
70981;SDS011;58640;51.320;9.456;2022-09-30T04:38:55;13.10;;;7.15;;
70981;SDS011;58640;51.320;9.456;2022-09-30T04:41:21;12.20;;;7.30;;
70981;SDS011;58640;51.320;9.456;2022-09-30T04:43:47;13.52;;;7.70;;
70981;SDS011;58640;51.320;9.456;2022-09-30T04:46:13;16.95;;;7.78;;
70981;SDS011;58640;51.320;9.456;2022-09-30T04:48:44;10.10;;;7.22;;
70981;SDS011;58640;51.320;9.456;2022-09-30T04:51:13;16.98;;;6.97;;
70981;SDS011;58640;51.320;9.456;2022-09-30T04:53:39;42.55;;;6.72;;
70981;SDS011;58640;51.320;9.456;2022-09-30T04:56:06;11.05;;;6.82;;
70981;SDS011;58640;51.320;9.456;2022-09-30T04:58:32;36.35;;;7.60;;
70981;SDS011;58640;51.320;9.456;2022-09-30T05:01:01;20.23;;;6.80;;
70981;SDS011;58640;51.320;9.456;2022-09-30T05:03:28;7.20;;;6.18;;
70981;SDS011;58640;51.320;9.456;2022-09-30T05:05:54;30.45;;;6.70;;
70981;SDS011;58640;51.320;9.456;2022-09-30T05:08:19;6.82;;;6.13;;
70981;SDS011;58640;51.320;9.456;2022-09-30T05:10:52;10.77;;;6.65;;
70981;SDS011;58640;51.320;9.456;2022-09-30T05:13:19;8.80;;;6.35;;
70981;SDS011;58640;51.320;9.456;2022-09-30T05:15:46;44.50;;;7.05;;
70981;SDS011;58640;51.320;9.456;2022-09-30T05:18:12;8.80;;;6.72;;
70981;SDS011;58640;51.320;9.456;2022-09-30T05:20:38;14.93;;;6.70;;
70981;SDS011;58640;51.320;9.456;2022-09-30T05:23:03;15.10;;;6.45;;
70981;SDS011;58640;51.320;9.456;2022-09-30T05:25:30;7.63;;;5.95;;
70981;SDS011;58640;51.320;9.456;2022-09-30T05:27:55;14.20;;;6.40;;
70981;SDS011;58640;51.320;9.456;2022-09-30T05:30:20;36.90;;;7.03;;
70981;SDS011;58640;51.320;9.456;2022-09-30T05:32:46;27.10;;;6.75;;
70981;SDS011;58640;51.320;9.456;2022-09-30T05:35:11;16.77;;;6.88;;
70981;SDS011;58640;51.320;9.456;2022-09-30T05:37:37;14.07;;;7.60;;
70981;SDS011;58640;51.320;9.456;2022-09-30T05:40:03;22.45;;;6.65;;
70981;SDS011;58640;51.320;9.456;2022-09-30T05:42:29;29.83;;;8.27;;
70981;SDS011;58640;51.320;9.456;2022-09-30T05:44:56;27.98;;;8.88;;
70981;SDS011;58640;51.320;9.456;2022-09-30T05:47:21;8.93;;;6.75;;
70981;SDS011;58640;51.320;9.456;2022-09-30T05:49:47;13.18;;;8.30;;
70981;SDS011;58640;51.320;9.456;2022-09-30T05:52:13;20.70;;;7.25;;
70981;SDS011;58640;51.320;9.456;2022-09-30T05:54:39;11.60;;;8.48;;
70981;SDS011;58640;51.320;9.456;2022-09-30T05:57:04;12.93;;;8.68;;
70981;SDS011;58640;51.320;9.456;2022-09-30T05:59:31;15.70;;;8.52;;
70981;SDS011;58640;51.320;9.456;2022-09-30T06:01:57;11.18;;;7.57;;
70981;SDS011;58640;51.320;9.456;2022-09-30T06:04:22;10.52;;;7.90;;
70981;SDS011;58640;51.320;9.456;2022-09-30T06:06:48;14.23;;;8.00;;
70981;SDS011;58640;51.320;9.456;2022-09-30T06:09:13;13.90;;;7.63;;
70981;SDS011;58640;51.320;9.456;2022-09-30T06:11:39;9.82;;;7.32;;
70981;SDS011;58640;51.320;9.456;2022-09-30T06:14:06;13.45;;;7.45;;
70981;SDS011;58640;51.320;9.456;2022-09-30T06:16:32;10.88;;;7.68;;
70981;SDS011;58640;51.320;9.456;2022-09-30T06:18:57;12.90;;;8.32;;
70981;SDS011;58640;51.320;9.456;2022-09-30T06:21:23;17.60;;;9.20;;
70981;SDS011;58640;51.320;9.456;2022-09-30T06:23:48;20.83;;;8.93;;
70981;SDS011;58640;51.320;9.456;2022-09-30T06:26:14;18.60;;;8.00;;
70981;SDS011;58640;51.320;9.456;2022-09-30T06:28:40;14.00;;;7.63;;
70981;SDS011;58640;51.320;9.456;2022-09-30T06:31:05;17.42;;;6.55;;
70981;SDS011;58640;51.320;9.456;2022-09-30T06:33:31;17.13;;;6.55;;
70981;SDS011;58640;51.320;9.456;2022-09-30T06:35:57;10.57;;;6.13;;
70981;SDS011;58640;51.320;9.456;2022-09-30T06:38:22;8.63;;;6.53;;
70981;SDS011;58640;51.320;9.456;2022-09-30T06:40:48;20.98;;;6.55;;
70981;SDS011;58640;51.320;9.456;2022-09-30T06:43:14;13.60;;;6.45;;
70981;SDS011;58640;51.320;9.456;2022-09-30T06:45:46;18.23;;;6.80;;
70981;SDS011;58640;51.320;9.456;2022-09-30T06:48:13;17.27;;;6.85;;
70981;SDS011;58640;51.320;9.456;2022-09-30T06:50:39;16.15;;;7.10;;
70981;SDS011;58640;51.320;9.456;2022-09-30T06:53:06;20.15;;;9.00;;
70981;SDS011;58640;51.320;9.456;2022-09-30T06:55:33;29.10;;;9.55;;
70981;SDS011;58640;51.320;9.456;2022-09-30T06:58:07;38.58;;;9.77;;
70981;SDS011;58640;51.320;9.456;2022-09-30T07:00:37;17.92;;;9.23;;
70981;SDS011;58640;51.320;9.456;2022-09-30T07:03:03;29.25;;;9.60;;
70981;SDS011;58640;51.320;9.456;2022-09-30T07:05:39;21.08;;;8.77;;
70981;SDS011;58640;51.320;9.456;2022-09-30T07:08:05;29.75;;;9.13;;
70981;SDS011;58640;51.320;9.456;2022-09-30T07:10:32;24.73;;;9.55;;
70981;SDS011;58640;51.320;9.456;2022-09-30T07:12:57;19.33;;;8.60;;
70981;SDS011;58640;51.320;9.456;2022-09-30T07:15:26;14.93;;;8.70;;
70981;SDS011;58640;51.320;9.456;2022-09-30T07:17:52;17.33;;;8.32;;
70981;SDS011;58640;51.320;9.456;2022-09-30T07:20:17;12.45;;;8.27;;
70981;SDS011;58640;51.320;9.456;2022-09-30T07:22:43;12.48;;;6.88;;
70981;SDS011;58640;51.320;9.456;2022-09-30T07:25:09;17.20;;;7.95;;
70981;SDS011;58640;51.320;9.456;2022-09-30T07:27:35;8.07;;;6.28;;
70981;SDS011;58640;51.320;9.456;2022-09-30T07:30:00;9.02;;;6.55;;
70981;SDS011;58640;51.320;9.456;2022-09-30T07:32:26;17.60;;;7.70;;
70981;SDS011;58640;51.320;9.456;2022-09-30T07:34:52;11.35;;;7.18;;
70981;SDS011;58640;51.320;9.456;2022-09-30T07:37:17;12.57;;;7.07;;
70981;SDS011;58640;51.320;9.456;2022-09-30T07:39:44;15.88;;;9.82;;
70981;SDS011;58640;51.320;9.456;2022-09-30T07:42:11;18.13;;;10.88;;
70981;SDS011;58640;51.320;9.456;2022-09-30T07:44:40;22.33;;;10.07;;
70981;SDS011;58640;51.320;9.456;2022-09-30T07:47:08;21.77;;;10.45;;
70981;SDS011;58640;51.320;9.456;2022-09-30T07:49:35;15.55;;;10.57;;
70981;SDS011;58640;51.320;9.456;2022-09-30T07:52:01;13.77;;;9.23;;
70981;SDS011;58640;51.320;9.456;2022-09-30T07:54:28;16.17;;;10.00;;
70981;SDS011;58640;51.320;9.456;2022-09-30T07:56:55;17.20;;;10.10;;
70981;SDS011;58640;51.320;9.456;2022-09-30T07:59:21;15.55;;;9.60;;
70981;SDS011;58640;51.320;9.456;2022-09-30T08:01:46;11.07;;;8.73;;
70981;SDS011;58640;51.320;9.456;2022-09-30T08:04:12;11.10;;;7.63;;
70981;SDS011;58640;51.320;9.456;2022-09-30T08:06:40;12.80;;;8.88;;
70981;SDS011;58640;51.320;9.456;2022-09-30T08:09:07;15.32;;;9.15;;
70981;SDS011;58640;51.320;9.456;2022-09-30T08:11:33;15.60;;;10.18;;
70981;SDS011;58640;51.320;9.456;2022-09-30T08:14:00;17.90;;;10.90;;
70981;SDS011;58640;51.320;9.456;2022-09-30T08:16:26;13.32;;;9.48;;
70981;SDS011;58640;51.320;9.456;2022-09-30T08:18:55;13.07;;;9.98;;
70981;SDS011;58640;51.320;9.456;2022-09-30T08:21:22;14.57;;;9.90;;
70981;SDS011;58640;51.320;9.456;2022-09-30T08:23:47;15.85;;;10.70;;
70981;SDS011;58640;51.320;9.456;2022-09-30T08:26:13;15.70;;;10.70;;
70981;SDS011;58640;51.320;9.456;2022-09-30T08:28:39;13.90;;;9.60;;
70981;SDS011;58640;51.320;9.456;2022-09-30T08:31:15;14.43;;;9.73;;
70981;SDS011;58640;51.320;9.456;2022-09-30T08:33:45;14.85;;;9.50;;
70981;SDS011;58640;51.320;9.456;2022-09-30T08:36:12;15.85;;;9.52;;
70981;SDS011;58640;51.320;9.456;2022-09-30T08:38:39;14.05;;;9.93;;
70981;SDS011;58640;51.320;9.456;2022-09-30T08:52:51;12.50;;;8.60;;
70981;SDS011;58640;51.320;9.456;2022-09-30T08:55:25;13.02;;;9.07;;
70981;SDS011;58640;51.320;9.456;2022-09-30T08:58:02;11.90;;;8.68;;
70981;SDS011;58640;51.320;9.456;2022-09-30T09:00:28;12.73;;;8.77;;
70981;SDS011;58640;51.320;9.456;2022-09-30T09:02:56;13.32;;;8.38;;
70981;SDS011;58640;51.320;9.456;2022-09-30T09:08:06;12.60;;;9.18;;
70981;SDS011;58640;51.320;9.456;2022-09-30T09:10:40;11.55;;;8.80;;
70981;SDS011;58640;51.320;9.456;2022-09-30T09:13:33;15.15;;;9.90;;
70981;SDS011;58640;51.320;9.456;2022-09-30T09:19:08;11.88;;;8.45;;
70981;SDS011;58640;51.320;9.456;2022-09-30T09:24:27;10.88;;;7.63;;
70981;SDS011;58640;51.320;9.456;2022-09-30T09:26:57;11.75;;;8.77;;
70981;SDS011;58640;51.320;9.456;2022-09-30T09:29:31;13.07;;;7.97;;
70981;SDS011;58640;51.320;9.456;2022-09-30T09:32:11;12.80;;;7.78;;
70981;SDS011;58640;51.320;9.456;2022-09-30T09:34:38;10.95;;;7.30;;
70981;SDS011;58640;51.320;9.456;2022-09-30T09:46:28;9.98;;;7.15;;
70981;SDS011;58640;51.320;9.456;2022-09-30T09:49:25;8.50;;;6.75;;
70981;SDS011;58640;51.320;9.456;2022-09-30T09:52:00;9.10;;;6.28;;
70981;SDS011;58640;51.320;9.456;2022-09-30T09:54:43;6.90;;;5.95;;
70981;SDS011;58640;51.320;9.456;2022-09-30T09:57:15;6.38;;;5.78;;
70981;SDS011;58640;51.320;9.456;2022-09-30T10:00:02;9.25;;;6.68;;
70981;SDS011;58640;51.320;9.456;2022-09-30T10:05:26;9.70;;;7.00;;
70981;SDS011;58640;51.320;9.456;2022-09-30T10:10:44;9.02;;;7.68;;
70981;SDS011;58640;51.320;9.456;2022-09-30T10:13:19;9.50;;;8.50;;
70981;SDS011;58640;51.320;9.456;2022-09-30T10:15:56;7.65;;;6.57;;
70981;SDS011;58640;51.320;9.456;2022-09-30T10:18:26;7.55;;;6.53;;
70981;SDS011;58640;51.320;9.456;2022-09-30T10:21:05;8.65;;;6.28;;
70981;SDS011;58640;51.320;9.456;2022-09-30T10:23:43;8.68;;;7.68;;
70981;SDS011;58640;51.320;9.456;2022-09-30T10:29:20;7.60;;;5.80;;
70981;SDS011;58640;51.320;9.456;2022-09-30T10:31:47;12.52;;;6.38;;
70981;SDS011;58640;51.320;9.456;2022-09-30T10:34:23;7.68;;;6.30;;
70981;SDS011;58640;51.320;9.456;2022-09-30T10:37:15;10.45;;;6.43;;
70981;SDS011;58640;51.320;9.456;2022-09-30T10:39:49;7.88;;;6.22;;
70981;SDS011;58640;51.320;9.456;2022-09-30T10:42:26;9.52;;;6.88;;
70981;SDS011;58640;51.320;9.456;2022-09-30T10:45:04;10.55;;;6.90;;
70981;SDS011;58640;51.320;9.456;2022-09-30T10:47:34;11.88;;;6.72;;
70981;SDS011;58640;51.320;9.456;2022-09-30T10:50:07;6.53;;;5.75;;
70981;SDS011;58640;51.320;9.456;2022-09-30T10:52:37;10.45;;;6.22;;
70981;SDS011;58640;51.320;9.456;2022-09-30T10:55:52;11.15;;;6.40;;
70981;SDS011;58640;51.320;9.456;2022-09-30T11:03:51;11.00;;;6.63;;
70981;SDS011;58640;51.320;9.456;2022-09-30T11:06:30;6.50;;;5.90;;
70981;SDS011;58640;51.320;9.456;2022-09-30T11:12:01;7.13;;;5.97;;
70981;SDS011;58640;51.320;9.456;2022-09-30T11:14:50;6.47;;;5.88;;
70981;SDS011;58640;51.320;9.456;2022-09-30T11:25:12;7.25;;;5.80;;
70981;SDS011;58640;51.320;9.456;2022-09-30T11:31:03;6.55;;;4.90;;
70981;SDS011;58640;51.320;9.456;2022-09-30T11:33:57;7.22;;;5.00;;
70981;SDS011;58640;51.320;9.456;2022-09-30T11:39:31;7.05;;;4.43;;
70981;SDS011;58640;51.320;9.456;2022-09-30T11:55:58;5.75;;;4.85;;
70981;SDS011;58640;51.320;9.456;2022-09-30T11:58:38;5.00;;;3.30;;
70981;SDS011;58640;51.320;9.456;2022-09-30T12:01:17;4.93;;;3.53;;
70981;SDS011;58640;51.320;9.456;2022-09-30T12:03:57;5.75;;;4.35;;
70981;SDS011;58640;51.320;9.456;2022-09-30T12:06:40;5.43;;;3.72;;
70981;SDS011;58640;51.320;9.456;2022-09-30T12:09:21;5.78;;;3.60;;
70981;SDS011;58640;51.320;9.456;2022-09-30T12:14:25;3.33;;;3.03;;
70981;SDS011;58640;51.320;9.456;2022-09-30T12:17:28;9.15;;;6.13;;
70981;SDS011;58640;51.320;9.456;2022-09-30T12:20:15;5.93;;;4.05;;
70981;SDS011;58640;51.320;9.456;2022-09-30T12:22:50;4.22;;;3.83;;
70981;SDS011;58640;51.320;9.456;2022-09-30T12:25:21;7.22;;;2.90;;
70981;SDS011;58640;51.320;9.456;2022-09-30T12:30:22;3.65;;;2.53;;
70981;SDS011;58640;51.320;9.456;2022-09-30T12:39:13;6.30;;;3.30;;
70981;SDS011;58640;51.320;9.456;2022-09-30T12:44:01;4.63;;;3.55;;
70981;SDS011;58640;51.320;9.456;2022-09-30T12:47:09;5.75;;;3.60;;
70981;SDS011;58640;51.320;9.456;2022-09-30T12:49:43;5.45;;;3.50;;
70981;SDS011;58640;51.320;9.456;2022-09-30T12:52:15;4.45;;;2.03;;
70981;SDS011;58640;51.320;9.456;2022-09-30T12:54:48;2.38;;;2.10;;
70981;SDS011;58640;51.320;9.456;2022-09-30T12:57:20;7.57;;;3.35;;
70981;SDS011;58640;51.320;9.456;2022-09-30T12:59:51;8.07;;;3.92;;
70981;SDS011;58640;51.320;9.456;2022-09-30T13:02:26;12.98;;;5.95;;
70981;SDS011;58640;51.320;9.456;2022-09-30T13:05:08;11.20;;;3.53;;
70981;SDS011;58640;51.320;9.456;2022-09-30T13:10:28;5.20;;;2.90;;
70981;SDS011;58640;51.320;9.456;2022-09-30T13:13:18;3.63;;;2.65;;
70981;SDS011;58640;51.320;9.456;2022-09-30T13:15:47;3.53;;;3.22;;
70981;SDS011;58640;51.320;9.456;2022-09-30T13:28:51;7.00;;;2.75;;
70981;SDS011;58640;51.320;9.456;2022-09-30T13:34:21;6.82;;;3.85;;
70981;SDS011;58640;51.320;9.456;2022-09-30T13:41:54;6.70;;;4.80;;
70981;SDS011;58640;51.320;9.456;2022-09-30T13:50:31;7.82;;;4.53;;
70981;SDS011;58640;51.320;9.456;2022-09-30T13:53:02;4.90;;;2.80;;
70981;SDS011;58640;51.320;9.456;2022-09-30T13:55:32;3.22;;;2.00;;
70981;SDS011;58640;51.320;9.456;2022-09-30T14:01:05;4.13;;;2.78;;
70981;SDS011;58640;51.320;9.456;2022-09-30T14:15:20;4.03;;;1.58;;
70981;SDS011;58640;51.320;9.456;2022-09-30T14:18:18;2.13;;;1.23;;
70981;SDS011;58640;51.320;9.456;2022-09-30T14:20:58;2.15;;;1.10;;
70981;SDS011;58640;51.320;9.456;2022-09-30T14:23:45;3.75;;;1.50;;
70981;SDS011;58640;51.320;9.456;2022-09-30T14:29:05;2.97;;;1.35;;
70981;SDS011;58640;51.320;9.456;2022-09-30T14:31:43;2.03;;;1.10;;
70981;SDS011;58640;51.320;9.456;2022-09-30T14:34:09;1.98;;;1.10;;
70981;SDS011;58640;51.320;9.456;2022-09-30T14:36:39;1.13;;;1.05;;
70981;SDS011;58640;51.320;9.456;2022-09-30T14:39:05;1.00;;;1.00;;
70981;SDS011;58640;51.320;9.456;2022-09-30T14:41:39;2.40;;;1.10;;
70981;SDS011;58640;51.320;9.456;2022-09-30T14:44:17;4.03;;;1.33;;
70981;SDS011;58640;51.320;9.456;2022-09-30T14:46:44;1.58;;;1.05;;
70981;SDS011;58640;51.320;9.456;2022-09-30T14:49:13;3.10;;;1.15;;
70981;SDS011;58640;51.320;9.456;2022-09-30T14:51:43;1.52;;;0.80;;
70981;SDS011;58640;51.320;9.456;2022-09-30T14:54:18;1.10;;;1.00;;
70981;SDS011;58640;51.320;9.456;2022-09-30T14:56:43;2.17;;;1.20;;
70981;SDS011;58640;51.320;9.456;2022-09-30T14:59:22;1.38;;;1.00;;
70981;SDS011;58640;51.320;9.456;2022-09-30T15:01:51;7.45;;;1.35;;
70981;SDS011;58640;51.320;9.456;2022-09-30T15:04:23;4.32;;;1.60;;
70981;SDS011;58640;51.320;9.456;2022-09-30T15:06:51;2.78;;;1.05;;
70981;SDS011;58640;51.320;9.456;2022-09-30T15:09:22;3.40;;;1.30;;
70981;SDS011;58640;51.320;9.456;2022-09-30T15:12:09;4.80;;;1.05;;
70981;SDS011;58640;51.320;9.456;2022-09-30T15:14:46;1.95;;;1.60;;
70981;SDS011;58640;51.320;9.456;2022-09-30T15:17:20;3.58;;;1.50;;
70981;SDS011;58640;51.320;9.456;2022-09-30T15:19:51;5.03;;;3.20;;
70981;SDS011;58640;51.320;9.456;2022-09-30T15:22:17;3.78;;;1.50;;
70981;SDS011;58640;51.320;9.456;2022-09-30T15:24:45;4.68;;;1.23;;
70981;SDS011;58640;51.320;9.456;2022-09-30T15:29:58;2.78;;;2.42;;
70981;SDS011;58640;51.320;9.456;2022-09-30T15:32:29;3.33;;;1.67;;
70981;SDS011;58640;51.320;9.456;2022-09-30T15:35:03;1.88;;;1.08;;
70981;SDS011;58640;51.320;9.456;2022-09-30T15:37:36;1.15;;;1.05;;
70981;SDS011;58640;51.320;9.456;2022-09-30T15:40:01;4.43;;;1.30;;
70981;SDS011;58640;51.320;9.456;2022-09-30T15:42:52;4.50;;;2.08;;
70981;SDS011;58640;51.320;9.456;2022-09-30T15:45:30;3.58;;;2.58;;
70981;SDS011;58640;51.320;9.456;2022-09-30T15:48:00;3.88;;;2.40;;
70981;SDS011;58640;51.320;9.456;2022-09-30T15:53:17;4.35;;;1.70;;
70981;SDS011;58640;51.320;9.456;2022-09-30T15:55:48;1.85;;;1.35;;
70981;SDS011;58640;51.320;9.456;2022-09-30T16:01:18;2.08;;;1.25;;
70981;SDS011;58640;51.320;9.456;2022-09-30T16:03:53;1.05;;;0.95;;
70981;SDS011;58640;51.320;9.456;2022-09-30T16:11:42;2.17;;;1.40;;
70981;SDS011;58640;51.320;9.456;2022-09-30T16:14:21;1.83;;;1.40;;
70981;SDS011;58640;51.320;9.456;2022-09-30T16:16:51;2.33;;;1.20;;
70981;SDS011;58640;51.320;9.456;2022-09-30T16:19:19;5.22;;;1.80;;
70981;SDS011;58640;51.320;9.456;2022-09-30T16:21:46;2.92;;;1.52;;
70981;SDS011;58640;51.320;9.456;2022-09-30T16:24:57;3.08;;;1.35;;
70981;SDS011;58640;51.320;9.456;2022-09-30T16:27:23;8.30;;;1.73;;
70981;SDS011;58640;51.320;9.456;2022-09-30T16:29:53;3.72;;;1.52;;
70981;SDS011;58640;51.320;9.456;2022-09-30T16:32:19;2.88;;;1.88;;
70981;SDS011;58640;51.320;9.456;2022-09-30T16:34:45;4.75;;;2.00;;
70981;SDS011;58640;51.320;9.456;2022-09-30T16:37:11;5.25;;;1.88;;
70981;SDS011;58640;51.320;9.456;2022-09-30T16:39:37;2.88;;;2.00;;
70981;SDS011;58640;51.320;9.456;2022-09-30T16:42:03;4.38;;;1.80;;
70981;SDS011;58640;51.320;9.456;2022-09-30T16:44:29;2.17;;;1.50;;
70981;SDS011;58640;51.320;9.456;2022-09-30T16:46:59;5.85;;;1.67;;
70981;SDS011;58640;51.320;9.456;2022-09-30T16:49:25;2.97;;;1.83;;
70981;SDS011;58640;51.320;9.456;2022-09-30T16:51:51;2.38;;;1.70;;
70981;SDS011;58640;51.320;9.456;2022-09-30T16:54:16;3.13;;;2.13;;
70981;SDS011;58640;51.320;9.456;2022-09-30T16:56:42;3.90;;;2.00;;
70981;SDS011;58640;51.320;9.456;2022-09-30T16:59:12;2.83;;;1.90;;
70981;SDS011;58640;51.320;9.456;2022-09-30T17:01:39;3.20;;;1.83;;
70981;SDS011;58640;51.320;9.456;2022-09-30T17:04:05;3.90;;;1.50;;
70981;SDS011;58640;51.320;9.456;2022-09-30T17:06:30;3.17;;;1.73;;
70981;SDS011;58640;51.320;9.456;2022-09-30T17:08:56;3.40;;;1.88;;
70981;SDS011;58640;51.320;9.456;2022-09-30T17:11:24;3.42;;;1.73;;
70981;SDS011;58640;51.320;9.456;2022-09-30T17:13:51;4.28;;;1.60;;
70981;SDS011;58640;51.320;9.456;2022-09-30T17:16:17;3.28;;;2.00;;
70981;SDS011;58640;51.320;9.456;2022-09-30T17:18:42;2.22;;;1.70;;
70981;SDS011;58640;51.320;9.456;2022-09-30T17:21:08;3.25;;;2.00;;
70981;SDS011;58640;51.320;9.456;2022-09-30T17:23:33;4.40;;;1.83;;
70981;SDS011;58640;51.320;9.456;2022-09-30T17:25:59;3.00;;;2.20;;
70981;SDS011;58640;51.320;9.456;2022-09-30T17:28:27;2.35;;;1.75;;
70981;SDS011;58640;51.320;9.456;2022-09-30T17:30:52;3.90;;;2.05;;
70981;SDS011;58640;51.320;9.456;2022-09-30T17:33:18;8.75;;;2.55;;
70981;SDS011;58640;51.320;9.456;2022-09-30T17:35:44;4.43;;;1.85;;
70981;SDS011;58640;51.320;9.456;2022-09-30T17:38:10;1.95;;;1.58;;
70981;SDS011;58640;51.320;9.456;2022-09-30T17:40:36;5.38;;;2.70;;
70981;SDS011;58640;51.320;9.456;2022-09-30T17:43:21;3.50;;;2.78;;
70981;SDS011;58640;51.320;9.456;2022-09-30T17:45:46;5.65;;;2.20;;
70981;SDS011;58640;51.320;9.456;2022-09-30T17:48:13;6.03;;;2.28;;
70981;SDS011;58640;51.320;9.456;2022-09-30T17:50:41;6.15;;;2.83;;
70981;SDS011;58640;51.320;9.456;2022-09-30T17:53:08;6.07;;;2.63;;
70981;SDS011;58640;51.320;9.456;2022-09-30T17:55:37;6.13;;;3.35;;
70981;SDS011;58640;51.320;9.456;2022-09-30T17:58:03;4.25;;;2.55;;
70981;SDS011;58640;51.320;9.456;2022-09-30T18:00:31;3.67;;;2.53;;
70981;SDS011;58640;51.320;9.456;2022-09-30T18:02:57;4.55;;;2.53;;
70981;SDS011;58640;51.320;9.456;2022-09-30T18:05:23;3.97;;;2.42;;
70981;SDS011;58640;51.320;9.456;2022-09-30T18:07:51;4.13;;;2.55;;
70981;SDS011;58640;51.320;9.456;2022-09-30T18:10:17;7.00;;;3.38;;
70981;SDS011;58640;51.320;9.456;2022-09-30T18:12:43;4.30;;;2.60;;
70981;SDS011;58640;51.320;9.456;2022-09-30T18:15:08;5.70;;;3.22;;
70981;SDS011;58640;51.320;9.456;2022-09-30T18:17:34;6.00;;;3.42;;
70981;SDS011;58640;51.320;9.456;2022-09-30T18:19:59;7.07;;;3.20;;
70981;SDS011;58640;51.320;9.456;2022-09-30T18:22:25;5.00;;;3.33;;
70981;SDS011;58640;51.320;9.456;2022-09-30T18:24:50;8.52;;;4.05;;
70981;SDS011;58640;51.320;9.456;2022-09-30T18:27:34;3.28;;;2.90;;
70981;SDS011;58640;51.320;9.456;2022-09-30T18:29:59;6.20;;;4.07;;